sensor_id;sensor_type;location;lat;lon;timestamp;pressure;altitude;pressure_sealevel;temperature;humidity
61870;BME280;47810;42.264;23.826;2023-03-16T00:00:20;92832.66;;;5.12;75.77
61870;BME280;47810;42.264;23.826;2023-03-16T00:02:54;92833.03;;;5.06;75.21
61870;BME280;47810;42.264;23.826;2023-03-16T00:05:20;92838.84;;;5.11;74.32
61870;BME280;47810;42.264;23.826;2023-03-16T00:07:45;92840.28;;;5.01;74.93
61870;BME280;47810;42.264;23.826;2023-03-16T00:10:11;92844.25;;;5.08;74.51
61870;BME280;47810;42.264;23.826;2023-03-16T00:12:37;92851.22;;;4.93;75.13
61870;BME280;47810;42.264;23.826;2023-03-16T00:15:03;92851.06;;;5.10;74.67
61870;BME280;47810;42.264;23.826;2023-03-16T00:17:29;92851.34;;;4.92;75.58
61870;BME280;47810;42.264;23.826;2023-03-16T00:19:55;92858.25;;;4.93;75.55
61870;BME280;47810;42.264;23.826;2023-03-16T00:22:22;92850.75;;;4.86;75.65
61870;BME280;47810;42.264;23.826;2023-03-16T00:24:48;92854.69;;;4.94;75.06
61870;BME280;47810;42.264;23.826;2023-03-16T00:27:14;92862.16;;;4.85;76.07
61870;BME280;47810;42.264;23.826;2023-03-16T00:29:43;92860.28;;;4.87;75.06
61870;BME280;47810;42.264;23.826;2023-03-16T00:32:15;92861.97;;;4.88;74.52
61870;BME280;47810;42.264;23.826;2023-03-16T00:34:41;92865.13;;;4.79;74.67
61870;BME280;47810;42.264;23.826;2023-03-16T00:37:07;92864.56;;;4.74;74.75
61870;BME280;47810;42.264;23.826;2023-03-16T00:39:32;92864.19;;;4.66;75.14
61870;BME280;47810;42.264;23.826;2023-03-16T00:42:00;92873.09;;;4.48;76.18
61870;BME280;47810;42.264;23.826;2023-03-16T00:44:26;92873.22;;;4.60;75.03
61870;BME280;47810;42.264;23.826;2023-03-16T00:46:51;92871.44;;;4.61;74.73
61870;BME280;47810;42.264;23.826;2023-03-16T00:49:17;92870.50;;;4.62;74.97
61870;BME280;47810;42.264;23.826;2023-03-16T00:51:42;92874.88;;;4.61;75.06
61870;BME280;47810;42.264;23.826;2023-03-16T00:54:11;92871.66;;;4.72;74.57
61870;BME280;47810;42.264;23.826;2023-03-16T00:56:36;92870.13;;;4.68;74.45
61870;BME280;47810;42.264;23.826;2023-03-16T00:59:03;92872.75;;;4.68;74.56
61870;BME280;47810;42.264;23.826;2023-03-16T01:01:30;92873.88;;;4.64;74.41
61870;BME280;47810;42.264;23.826;2023-03-16T01:03:57;92869.97;;;4.71;74.21
61870;BME280;47810;42.264;23.826;2023-03-16T01:06:24;92874.75;;;4.49;75.65
61870;BME280;47810;42.264;23.826;2023-03-16T01:08:50;92877.97;;;4.54;75.64
61870;BME280;47810;42.264;23.826;2023-03-16T01:11:17;92876.41;;;4.35;77.46
61870;BME280;47810;42.264;23.826;2023-03-16T01:13:43;92880.69;;;4.36;78.01
61870;BME280;47810;42.264;23.826;2023-03-16T01:16:11;92881.25;;;4.27;78.80
61870;BME280;47810;42.264;23.826;2023-03-16T01:18:37;92879.31;;;4.45;77.91
61870;BME280;47810;42.264;23.826;2023-03-16T01:21:03;92878.53;;;4.29;78.44
61870;BME280;47810;42.264;23.826;2023-03-16T01:23:30;92874.63;;;4.36;78.51
61870;BME280;47810;42.264;23.826;2023-03-16T01:25:56;92886.53;;;4.26;79.02
61870;BME280;47810;42.264;23.826;2023-03-16T01:28:22;92888.47;;;4.22;79.60
61870;BME280;47810;42.264;23.826;2023-03-16T01:30:49;92889.59;;;4.02;80.69
61870;BME280;47810;42.264;23.826;2023-03-16T01:33:21;92888.22;;;4.11;80.48
61870;BME280;47810;42.264;23.826;2023-03-16T01:35:57;92891.13;;;4.36;79.82
61870;BME280;47810;42.264;23.826;2023-03-16T01:38:23;92893.72;;;4.22;79.49
61870;BME280;47810;42.264;23.826;2023-03-16T01:40:49;92890.50;;;4.17;79.67
61870;BME280;47810;42.264;23.826;2023-03-16T01:43:16;92897.69;;;3.97;81.13
61870;BME280;47810;42.264;23.826;2023-03-16T01:48:26;92898.63;;;3.96;81.01
61870;BME280;47810;42.264;23.826;2023-03-16T01:50:52;92901.00;;;3.85;82.16
61870;BME280;47810;42.264;23.826;2023-03-16T01:53:18;92904.84;;;3.78;82.44
61870;BME280;47810;42.264;23.826;2023-03-16T01:55:46;92907.06;;;4.02;81.78
61870;BME280;47810;42.264;23.826;2023-03-16T01:58:12;92908.22;;;3.64;83.23
61870;BME280;47810;42.264;23.826;2023-03-16T02:00:39;92911.66;;;3.65;83.29
61870;BME280;47810;42.264;23.826;2023-03-16T02:03:13;92905.50;;;3.66;83.93
61870;BME280;47810;42.264;23.826;2023-03-16T02:05:41;92907.72;;;3.58;83.53
61870;BME280;47810;42.264;23.826;2023-03-16T02:08:09;92915.22;;;3.31;84.72
61870;BME280;47810;42.264;23.826;2023-03-16T02:10:34;92915.22;;;3.31;84.90
61870;BME280;47810;42.264;23.826;2023-03-16T02:13:01;92912.75;;;3.45;84.42
61870;BME280;47810;42.264;23.826;2023-03-16T02:15:27;92923.69;;;3.52;84.41
61870;BME280;47810;42.264;23.826;2023-03-16T02:17:53;92917.41;;;3.71;83.56
61870;BME280;47810;42.264;23.826;2023-03-16T02:23:08;92914.94;;;3.68;85.16
61870;BME280;47810;42.264;23.826;2023-03-16T02:31:01;92918.47;;;3.52;85.39
61870;BME280;47810;42.264;23.826;2023-03-16T02:33:27;92928.03;;;3.35;86.36
61870;BME280;47810;42.264;23.826;2023-03-16T02:35:53;92926.13;;;3.55;85.54
61870;BME280;47810;42.264;23.826;2023-03-16T02:38:18;92933.25;;;3.35;85.50
61870;BME280;47810;42.264;23.826;2023-03-16T02:40:44;92927.41;;;3.47;85.27
61870;BME280;47810;42.264;23.826;2023-03-16T02:43:11;92935.38;;;3.44;85.25
61870;BME280;47810;42.264;23.826;2023-03-16T02:45:45;92940.31;;;3.33;85.38
61870;BME280;47810;42.264;23.826;2023-03-16T02:48:13;92938.13;;;3.25;85.77
61870;BME280;47810;42.264;23.826;2023-03-16T02:50:44;92944.34;;;3.23;85.42
61870;BME280;47810;42.264;23.826;2023-03-16T02:53:14;92939.72;;;3.28;85.20
61870;BME280;47810;42.264;23.826;2023-03-16T02:55:39;92948.41;;;3.29;84.80
61870;BME280;47810;42.264;23.826;2023-03-16T02:58:05;92951.03;;;3.44;83.89
61870;BME280;47810;42.264;23.826;2023-03-16T03:00:30;92954.69;;;3.58;82.69
61870;BME280;47810;42.264;23.826;2023-03-16T03:02:56;92956.69;;;3.53;82.61
61870;BME280;47810;42.264;23.826;2023-03-16T03:05:22;92957.56;;;3.02;83.37
61870;BME280;47810;42.264;23.826;2023-03-16T03:07:48;92969.06;;;3.16;83.33
61870;BME280;47810;42.264;23.826;2023-03-16T03:10:13;92964.91;;;2.94;82.93
61870;BME280;47810;42.264;23.826;2023-03-16T03:12:39;92966.81;;;3.08;82.03
61870;BME280;47810;42.264;23.826;2023-03-16T03:15:05;92968.75;;;3.04;81.69
61870;BME280;47810;42.264;23.826;2023-03-16T03:17:30;92976.03;;;2.98;81.63
61870;BME280;47810;42.264;23.826;2023-03-16T03:19:59;92973.38;;;2.99;81.25
61870;BME280;47810;42.264;23.826;2023-03-16T03:22:30;92978.09;;;2.91;80.94
61870;BME280;47810;42.264;23.826;2023-03-16T03:24:56;92976.63;;;2.86;80.65
61870;BME280;47810;42.264;23.826;2023-03-16T03:27:21;92986.25;;;3.02;80.05
61870;BME280;47810;42.264;23.826;2023-03-16T03:29:49;92990.84;;;2.97;79.99
61870;BME280;47810;42.264;23.826;2023-03-16T03:32:16;92982.94;;;2.99;80.18
61870;BME280;47810;42.264;23.826;2023-03-16T03:34:41;92987.94;;;2.86;80.35
61870;BME280;47810;42.264;23.826;2023-03-16T03:37:07;92985.94;;;2.91;80.33
61870;BME280;47810;42.264;23.826;2023-03-16T03:39:33;92993.75;;;2.91;80.21
61870;BME280;47810;42.264;23.826;2023-03-16T03:41:59;92998.22;;;2.89;79.95
61870;BME280;47810;42.264;23.826;2023-03-16T03:44:27;92991.97;;;2.92;80.02
61870;BME280;47810;42.264;23.826;2023-03-16T03:46:53;92996.91;;;2.80;79.83
61870;BME280;47810;42.264;23.826;2023-03-16T03:49:20;93009.00;;;2.64;81.21
61870;BME280;47810;42.264;23.826;2023-03-16T03:51:46;93006.00;;;2.72;80.66
61870;BME280;47810;42.264;23.826;2023-03-16T03:54:11;93005.81;;;2.40;81.34
61870;BME280;47810;42.264;23.826;2023-03-16T03:56:37;93016.78;;;2.47;81.37
61870;BME280;47810;42.264;23.826;2023-03-16T03:59:05;93010.91;;;2.61;80.41
61870;BME280;47810;42.264;23.826;2023-03-16T04:01:31;93019.59;;;2.42;80.76
61870;BME280;47810;42.264;23.826;2023-03-16T04:03:56;93027.72;;;2.53;80.18
61870;BME280;47810;42.264;23.826;2023-03-16T04:06:22;93027.31;;;2.63;80.01
61870;BME280;47810;42.264;23.826;2023-03-16T04:08:48;93036.28;;;2.74;79.02
61870;BME280;47810;42.264;23.826;2023-03-16T04:11:13;93042.03;;;2.64;79.52
61870;BME280;47810;42.264;23.826;2023-03-16T04:13:39;93039.75;;;2.75;79.43
61870;BME280;47810;42.264;23.826;2023-03-16T04:16:05;93041.91;;;2.84;78.46
61870;BME280;47810;42.264;23.826;2023-03-16T04:18:31;93044.66;;;2.64;78.50
61870;BME280;47810;42.264;23.826;2023-03-16T04:21:05;93046.19;;;2.68;79.00
61870;BME280;47810;42.264;23.826;2023-03-16T04:23:31;93050.03;;;2.42;79.82
61870;BME280;47810;42.264;23.826;2023-03-16T04:25:58;93056.91;;;2.43;79.79
61870;BME280;47810;42.264;23.826;2023-03-16T04:28:24;93064.00;;;2.22;79.46
61870;BME280;47810;42.264;23.826;2023-03-16T04:30:51;93069.34;;;2.38;79.26
61870;BME280;47810;42.264;23.826;2023-03-16T04:33:19;93073.19;;;2.29;78.92
61870;BME280;47810;42.264;23.826;2023-03-16T04:35:45;93068.00;;;2.10;79.28
61870;BME280;47810;42.264;23.826;2023-03-16T04:38:10;93067.91;;;2.12;79.28
61870;BME280;47810;42.264;23.826;2023-03-16T04:40:37;93077.97;;;2.38;78.84
61870;BME280;47810;42.264;23.826;2023-03-16T04:43:02;93072.13;;;2.33;78.58
61870;BME280;47810;42.264;23.826;2023-03-16T04:45:28;93085.38;;;2.28;79.22
61870;BME280;47810;42.264;23.826;2023-03-16T04:47:53;93082.69;;;2.30;79.32
61870;BME280;47810;42.264;23.826;2023-03-16T04:50:19;93087.19;;;2.45;78.95
61870;BME280;47810;42.264;23.826;2023-03-16T04:52:45;93090.09;;;2.39;78.48
61870;BME280;47810;42.264;23.826;2023-03-16T04:55:10;93090.09;;;2.20;79.23
61870;BME280;47810;42.264;23.826;2023-03-16T04:57:36;93083.34;;;2.16;79.26
61870;BME280;47810;42.264;23.826;2023-03-16T05:00:02;93091.75;;;2.40;78.52
61870;BME280;47810;42.264;23.826;2023-03-16T05:02:34;93092.19;;;2.31;78.66
61870;BME280;47810;42.264;23.826;2023-03-16T05:05:00;93081.72;;;2.14;79.20
61870;BME280;47810;42.264;23.826;2023-03-16T05:07:25;93094.19;;;2.26;78.88
61870;BME280;47810;42.264;23.826;2023-03-16T05:09:51;93097.59;;;2.07;79.36
61870;BME280;47810;42.264;23.826;2023-03-16T05:12:17;93098.88;;;2.18;79.50
61870;BME280;47810;42.264;23.826;2023-03-16T05:14:42;93098.13;;;2.16;79.16
61870;BME280;47810;42.264;23.826;2023-03-16T05:17:08;93109.84;;;2.05;79.27
61870;BME280;47810;42.264;23.826;2023-03-16T05:19:33;93098.31;;;2.30;78.71
61870;BME280;47810;42.264;23.826;2023-03-16T05:21:59;93109.25;;;2.38;77.93
61870;BME280;47810;42.264;23.826;2023-03-16T05:24:24;93114.22;;;2.43;78.36
61870;BME280;47810;42.264;23.826;2023-03-16T05:26:50;93112.53;;;2.23;79.00
61870;BME280;47810;42.264;23.826;2023-03-16T05:29:16;93114.22;;;2.24;79.20
61870;BME280;47810;42.264;23.826;2023-03-16T05:31:42;93117.72;;;2.04;79.32
61870;BME280;47810;42.264;23.826;2023-03-16T05:34:09;93128.81;;;1.89;80.52
61870;BME280;47810;42.264;23.826;2023-03-16T05:36:34;93122.81;;;2.07;80.26
61870;BME280;47810;42.264;23.826;2023-03-16T05:39:00;93121.81;;;2.09;79.38
61870;BME280;47810;42.264;23.826;2023-03-16T05:41:26;93123.91;;;2.01;78.75
61870;BME280;47810;42.264;23.826;2023-03-16T05:43:51;93129.66;;;1.89;79.66
61870;BME280;47810;42.264;23.826;2023-03-16T05:46:25;93127.53;;;1.78;79.52
61870;BME280;47810;42.264;23.826;2023-03-16T05:48:50;93125.63;;;2.02;78.89
61870;BME280;47810;42.264;23.826;2023-03-16T05:51:16;93134.00;;;2.09;78.03
61870;BME280;47810;42.264;23.826;2023-03-16T05:53:41;93137.44;;;2.09;78.29
61870;BME280;47810;42.264;23.826;2023-03-16T05:56:10;93125.97;;;2.14;78.36
61870;BME280;47810;42.264;23.826;2023-03-16T05:58:36;93132.28;;;1.69;79.46
61870;BME280;47810;42.264;23.826;2023-03-16T06:01:01;93127.53;;;1.78;78.68
61870;BME280;47810;42.264;23.826;2023-03-16T06:03:27;93135.25;;;2.00;78.11
61870;BME280;47810;42.264;23.826;2023-03-16T06:05:52;93142.16;;;1.81;78.62
61870;BME280;47810;42.264;23.826;2023-03-16T06:08:18;93135.91;;;1.85;78.28
61870;BME280;47810;42.264;23.826;2023-03-16T06:10:45;93146.72;;;1.96;77.86
61870;BME280;47810;42.264;23.826;2023-03-16T06:13:10;93149.97;;;1.81;78.86
61870;BME280;47810;42.264;23.826;2023-03-16T06:15:36;93142.41;;;1.95;77.60
61870;BME280;47810;42.264;23.826;2023-03-16T06:18:02;93155.03;;;2.04;77.47
61870;BME280;47810;42.264;23.826;2023-03-16T06:20:27;93153.06;;;2.09;76.88
61870;BME280;47810;42.264;23.826;2023-03-16T06:22:53;93164.50;;;2.05;78.03
61870;BME280;47810;42.264;23.826;2023-03-16T06:25:18;93163.63;;;2.06;78.17
61870;BME280;47810;42.264;23.826;2023-03-16T06:27:44;93161.91;;;2.05;77.66
61870;BME280;47810;42.264;23.826;2023-03-16T06:30:11;93167.28;;;2.02;77.87
61870;BME280;47810;42.264;23.826;2023-03-16T06:32:37;93166.72;;;2.15;77.49
61870;BME280;47810;42.264;23.826;2023-03-16T06:35:03;93179.09;;;2.09;77.04
61870;BME280;47810;42.264;23.826;2023-03-16T06:37:29;93185.31;;;2.26;77.06
61870;BME280;47810;42.264;23.826;2023-03-16T06:39:55;93181.78;;;2.27;76.59
61870;BME280;47810;42.264;23.826;2023-03-16T06:42:20;93182.50;;;2.30;76.49
61870;BME280;47810;42.264;23.826;2023-03-16T06:44:46;93190.81;;;2.20;76.68
61870;BME280;47810;42.264;23.826;2023-03-16T06:47:12;93191.72;;;2.19;76.79
61870;BME280;47810;42.264;23.826;2023-03-16T06:49:38;93193.75;;;2.31;75.91
61870;BME280;47810;42.264;23.826;2023-03-16T06:52:03;93201.56;;;2.31;76.37
61870;BME280;47810;42.264;23.826;2023-03-16T06:54:29;93209.81;;;2.41;75.40
61870;BME280;47810;42.264;23.826;2023-03-16T06:56:58;93218.72;;;2.55;74.82
61870;BME280;47810;42.264;23.826;2023-03-16T06:59:23;93217.44;;;2.45;75.10
61870;BME280;47810;42.264;23.826;2023-03-16T07:01:49;93211.69;;;2.58;75.00
61870;BME280;47810;42.264;23.826;2023-03-16T07:04:15;93216.22;;;2.73;74.79
61870;BME280;47810;42.264;23.826;2023-03-16T07:06:40;93225.22;;;2.66;74.22
61870;BME280;47810;42.264;23.826;2023-03-16T07:09:06;93225.34;;;2.82;73.80
61870;BME280;47810;42.264;23.826;2023-03-16T07:11:31;93220.63;;;2.52;74.83
61870;BME280;47810;42.264;23.826;2023-03-16T07:13:57;93225.78;;;2.72;74.59
61870;BME280;47810;42.264;23.826;2023-03-16T07:16:23;93223.53;;;2.65;74.60
61870;BME280;47810;42.264;23.826;2023-03-16T07:18:49;93225.59;;;2.77;75.17
61870;BME280;47810;42.264;23.826;2023-03-16T07:21:16;93231.84;;;2.73;73.80
61870;BME280;47810;42.264;23.826;2023-03-16T07:23:42;93231.84;;;2.73;74.04
61870;BME280;47810;42.264;23.826;2023-03-16T07:26:07;93235.34;;;2.72;73.91
61870;BME280;47810;42.264;23.826;2023-03-16T07:28:33;93236.34;;;2.69;74.01
61870;BME280;47810;42.264;23.826;2023-03-16T07:30:58;93232.41;;;2.98;72.54
61870;BME280;47810;42.264;23.826;2023-03-16T07:33:24;93246.34;;;2.97;72.14
61870;BME280;47810;42.264;23.826;2023-03-16T07:35:49;93247.19;;;2.98;72.06
61870;BME280;47810;42.264;23.826;2023-03-16T07:38:16;93239.31;;;2.99;71.85
61870;BME280;47810;42.264;23.826;2023-03-16T07:40:41;93251.44;;;3.00;71.13
61870;BME280;47810;42.264;23.826;2023-03-16T07:43:07;93246.88;;;3.06;71.23
61870;BME280;47810;42.264;23.826;2023-03-16T07:45:33;93253.84;;;2.86;72.03
61870;BME280;47810;42.264;23.826;2023-03-16T07:47:58;93259.06;;;3.05;71.32
61870;BME280;47810;42.264;23.826;2023-03-16T07:50:24;93250.88;;;3.13;71.74
61870;BME280;47810;42.264;23.826;2023-03-16T07:52:49;93254.72;;;3.23;71.13
61870;BME280;47810;42.264;23.826;2023-03-16T07:55:15;93256.91;;;3.32;70.85
61870;BME280;47810;42.264;23.826;2023-03-16T07:57:40;93252.34;;;3.37;70.08
61870;BME280;47810;42.264;23.826;2023-03-16T08:00:07;93252.09;;;3.42;70.59
61870;BME280;47810;42.264;23.826;2023-03-16T08:02:33;93258.56;;;3.52;70.06
61870;BME280;47810;42.264;23.826;2023-03-16T08:04:59;93259.69;;;3.46;70.53
61870;BME280;47810;42.264;23.826;2023-03-16T08:07:24;93254.19;;;3.53;70.02
61870;BME280;47810;42.264;23.826;2023-03-16T08:09:50;93252.72;;;3.83;69.50
61870;BME280;47810;42.264;23.826;2023-03-16T08:12:16;93260.25;;;3.89;70.17
61870;BME280;47810;42.264;23.826;2023-03-16T08:14:41;93267.16;;;4.08;69.67
61870;BME280;47810;42.264;23.826;2023-03-16T08:17:09;93260.31;;;4.23;68.75
61870;BME280;47810;42.264;23.826;2023-03-16T08:19:36;93263.94;;;4.37;67.52
61870;BME280;47810;42.264;23.826;2023-03-16T08:22:03;93255.78;;;4.26;67.00
61870;BME280;47810;42.264;23.826;2023-03-16T08:24:30;93267.22;;;4.24;67.54
61870;BME280;47810;42.264;23.826;2023-03-16T08:26:55;93271.13;;;4.32;67.05
61870;BME280;47810;42.264;23.826;2023-03-16T08:29:22;93271.59;;;4.40;66.74
61870;BME280;47810;42.264;23.826;2023-03-16T08:31:48;93285.94;;;4.49;65.88
61870;BME280;47810;42.264;23.826;2023-03-16T08:34:13;93268.38;;;4.35;66.10
61870;BME280;47810;42.264;23.826;2023-03-16T08:36:40;93274.69;;;4.31;66.49
61870;BME280;47810;42.264;23.826;2023-03-16T08:39:08;93272.28;;;4.27;66.76
61870;BME280;47810;42.264;23.826;2023-03-16T08:41:33;93279.75;;;4.34;67.46
61870;BME280;47810;42.264;23.826;2023-03-16T08:43:59;93284.84;;;4.37;67.03
61870;BME280;47810;42.264;23.826;2023-03-16T08:46:25;93290.81;;;4.57;66.84
61870;BME280;47810;42.264;23.826;2023-03-16T08:48:50;93280.00;;;4.80;67.10
61870;BME280;47810;42.264;23.826;2023-03-16T08:51:17;93283.06;;;4.71;65.47
61870;BME280;47810;42.264;23.826;2023-03-16T08:53:45;93288.63;;;4.65;64.81
61870;BME280;47810;42.264;23.826;2023-03-16T08:56:11;93286.47;;;4.73;64.39
61870;BME280;47810;42.264;23.826;2023-03-16T08:58:38;93284.06;;;4.68;64.09
61870;BME280;47810;42.264;23.826;2023-03-16T09:01:06;93294.44;;;4.87;63.71
61870;BME280;47810;42.264;23.826;2023-03-16T09:03:33;93277.50;;;4.95;63.74
61870;BME280;47810;42.264;23.826;2023-03-16T09:06:03;93287.63;;;5.01;62.67
61870;BME280;47810;42.264;23.826;2023-03-16T09:08:30;93296.78;;;4.59;62.82
61870;BME280;47810;42.264;23.826;2023-03-16T09:10:59;93287.16;;;4.77;62.71
61870;BME280;47810;42.264;23.826;2023-03-16T09:13:26;93280.91;;;5.12;62.62
61870;BME280;47810;42.264;23.826;2023-03-16T09:15:51;93288.13;;;4.92;62.81
61870;BME280;47810;42.264;23.826;2023-03-16T09:18:17;93290.59;;;4.77;62.44
61870;BME280;47810;42.264;23.826;2023-03-16T09:20:44;93282.59;;;4.80;61.83
61870;BME280;47810;42.264;23.826;2023-03-16T09:23:12;93291.22;;;4.82;62.47
61870;BME280;47810;42.264;23.826;2023-03-16T09:25:38;93290.59;;;4.95;62.41
61870;BME280;47810;42.264;23.826;2023-03-16T09:28:04;93291.59;;;4.92;63.22
61870;BME280;47810;42.264;23.826;2023-03-16T09:30:29;93293.13;;;5.12;62.06
61870;BME280;47810;42.264;23.826;2023-03-16T09:32:55;93295.81;;;4.95;61.70
61870;BME280;47810;42.264;23.826;2023-03-16T09:35:21;93294.69;;;4.83;62.53
61870;BME280;47810;42.264;23.826;2023-03-16T09:37:46;93305.50;;;4.93;62.75
61870;BME280;47810;42.264;23.826;2023-03-16T09:40:22;93302.56;;;4.99;62.47
61870;BME280;47810;42.264;23.826;2023-03-16T09:45:43;93302.75;;;4.78;64.18
61870;BME280;47810;42.264;23.826;2023-03-16T09:48:10;93304.16;;;4.85;63.01
61870;BME280;47810;42.264;23.826;2023-03-16T09:50:37;93309.09;;;4.57;64.51
61870;BME280;47810;42.264;23.826;2023-03-16T09:55:50;93310.78;;;4.58;64.52
61870;BME280;47810;42.264;23.826;2023-03-16T09:58:18;93313.09;;;4.64;64.40
61870;BME280;47810;42.264;23.826;2023-03-16T10:03:15;93312.97;;;4.50;64.31
61870;BME280;47810;42.264;23.826;2023-03-16T10:05:42;93308.84;;;4.61;64.59
61870;BME280;47810;42.264;23.826;2023-03-16T10:08:12;93313.72;;;4.52;65.15
61870;BME280;47810;42.264;23.826;2023-03-16T10:15:49;93308.75;;;4.80;65.22
61870;BME280;47810;42.264;23.826;2023-03-16T10:18:21;93315.56;;;4.67;64.88
61870;BME280;47810;42.264;23.826;2023-03-16T10:20:49;93307.72;;;4.67;64.82
61870;BME280;47810;42.264;23.826;2023-03-16T10:23:16;93313.16;;;4.80;63.96
61870;BME280;47810;42.264;23.826;2023-03-16T10:25:44;93310.94;;;4.55;65.81
61870;BME280;47810;42.264;23.826;2023-03-16T10:28:15;93300.59;;;4.86;64.52
61870;BME280;47810;42.264;23.826;2023-03-16T10:30:41;93299.31;;;5.11;64.11
61870;BME280;47810;42.264;23.826;2023-03-16T10:33:13;93306.75;;;4.85;63.60
61870;BME280;47810;42.264;23.826;2023-03-16T10:35:44;93296.63;;;4.79;64.24
61870;BME280;47810;42.264;23.826;2023-03-16T10:38:27;93296.06;;;5.06;63.30
61870;BME280;47810;42.264;23.826;2023-03-16T10:40:53;93296.03;;;5.23;63.56
61870;BME280;47810;42.264;23.826;2023-03-16T10:43:18;93291.47;;;5.11;63.72
61870;BME280;47810;42.264;23.826;2023-03-16T10:45:44;93294.09;;;5.27;63.45
61870;BME280;47810;42.264;23.826;2023-03-16T10:48:15;93295.50;;;5.17;64.08
61870;BME280;47810;42.264;23.826;2023-03-16T10:50:43;93291.38;;;5.28;63.72
61870;BME280;47810;42.264;23.826;2023-03-16T10:53:17;93300.53;;;5.04;64.37
61870;BME280;47810;42.264;23.826;2023-03-16T10:55:45;93293.31;;;5.09;64.15
61870;BME280;47810;42.264;23.826;2023-03-16T10:58:21;93300.56;;;5.20;63.96
61870;BME280;47810;42.264;23.826;2023-03-16T11:00:47;93298.75;;;5.37;63.11
61870;BME280;47810;42.264;23.826;2023-03-16T11:03:20;93294.16;;;5.25;64.40
61870;BME280;47810;42.264;23.826;2023-03-16T11:05:56;93299.34;;;5.27;62.86
61870;BME280;47810;42.264;23.826;2023-03-16T11:08:24;93305.59;;;5.07;63.86
61870;BME280;47810;42.264;23.826;2023-03-16T11:10:55;93293.31;;;5.09;64.05
61870;BME280;47810;42.264;23.826;2023-03-16T11:13:23;93291.47;;;5.11;63.31
61870;BME280;47810;42.264;23.826;2023-03-16T11:15:58;93293.16;;;5.44;63.95
61870;BME280;47810;42.264;23.826;2023-03-16T11:18:34;93297.22;;;5.18;62.75
61870;BME280;47810;42.264;23.826;2023-03-16T11:21:16;93289.09;;;5.22;63.40
61870;BME280;47810;42.264;23.826;2023-03-16T11:23:47;93289.13;;;5.54;63.49
61870;BME280;47810;42.264;23.826;2023-03-16T11:26:22;93282.53;;;5.63;61.83
61870;BME280;47810;42.264;23.826;2023-03-16T11:28:52;93280.41;;;5.37;61.45
61870;BME280;47810;42.264;23.826;2023-03-16T11:34:16;93291.31;;;5.30;62.13
61870;BME280;47810;42.264;23.826;2023-03-16T11:36:46;93283.38;;;5.63;61.89
61870;BME280;47810;42.264;23.826;2023-03-16T11:41:49;93290.63;;;5.42;61.72
61870;BME280;47810;42.264;23.826;2023-03-16T11:46:59;93284.22;;;5.64;61.60
61870;BME280;47810;42.264;23.826;2023-03-16T11:51:58;93295.88;;;5.58;61.37
61870;BME280;47810;42.264;23.826;2023-03-16T12:07:59;93303.28;;;5.18;60.93
61870;BME280;47810;42.264;23.826;2023-03-16T12:10:32;93309.03;;;5.41;61.09
61870;BME280;47810;42.264;23.826;2023-03-16T12:13:09;93310.00;;;5.55;60.76
61870;BME280;47810;42.264;23.826;2023-03-16T12:15:40;93316.06;;;5.56;60.86
61870;BME280;47810;42.264;23.826;2023-03-16T12:20:39;93316.31;;;5.67;60.71
61870;BME280;47810;42.264;23.826;2023-03-16T12:23:09;93324.09;;;5.53;60.29
61870;BME280;47810;42.264;23.826;2023-03-16T12:25:38;93322.00;;;5.26;61.01
61870;BME280;47810;42.264;23.826;2023-03-16T12:28:08;93334.72;;;5.34;61.29
61870;BME280;47810;42.264;23.826;2023-03-16T12:38:34;93340.94;;;5.31;61.02
61870;BME280;47810;42.264;23.826;2023-03-16T12:41:13;93341.09;;;5.28;61.34
61870;BME280;47810;42.264;23.826;2023-03-16T12:46:27;93339.59;;;5.24;60.53
61870;BME280;47810;42.264;23.826;2023-03-16T12:48:56;93354.38;;;4.92;61.68
61870;BME280;47810;42.264;23.826;2023-03-16T12:51:36;93352.28;;;4.81;62.53
61870;BME280;47810;42.264;23.826;2023-03-16T12:54:03;93359.50;;;5.11;62.77
61870;BME280;47810;42.264;23.826;2023-03-16T12:56:42;93345.78;;;5.06;61.64
61870;BME280;47810;42.264;23.826;2023-03-16T12:59:15;93365.19;;;4.84;62.09
61870;BME280;47810;42.264;23.826;2023-03-16T13:01:41;93375.06;;;4.79;62.29
61870;BME280;47810;42.264;23.826;2023-03-16T13:04:18;93373.09;;;4.50;62.58
61870;BME280;47810;42.264;23.826;2023-03-16T13:06:46;93380.00;;;4.51;63.45
61870;BME280;47810;42.264;23.826;2023-03-16T13:09:23;93387.19;;;4.46;63.17
61870;BME280;47810;42.264;23.826;2023-03-16T13:11:51;93387.81;;;4.33;63.34
61870;BME280;47810;42.264;23.826;2023-03-16T13:14:36;93385.53;;;4.44;62.88
61870;BME280;47810;42.264;23.826;2023-03-16T13:19:40;93392.13;;;4.52;63.10
61870;BME280;47810;42.264;23.826;2023-03-16T13:27:31;93406.88;;;4.35;63.55
61870;BME280;47810;42.264;23.826;2023-03-16T13:30:01;93412.53;;;4.26;63.50
61870;BME280;47810;42.264;23.826;2023-03-16T13:32:40;93411.91;;;3.85;64.36
61870;BME280;47810;42.264;23.826;2023-03-16T13:35:15;93410.91;;;3.87;64.61
61870;BME280;47810;42.264;23.826;2023-03-16T13:37:42;93411.28;;;3.80;64.72
61870;BME280;47810;42.264;23.826;2023-03-16T13:42:45;93416.69;;;3.75;64.99
61870;BME280;47810;42.264;23.826;2023-03-16T13:45:12;93419.53;;;3.89;65.35
61870;BME280;47810;42.264;23.826;2023-03-16T13:47:42;93435.50;;;3.83;65.58
61870;BME280;47810;42.264;23.826;2023-03-16T13:50:12;93425.41;;;3.57;65.75
61870;BME280;47810;42.264;23.826;2023-03-16T13:52:38;93430.13;;;3.86;64.92
61870;BME280;47810;42.264;23.826;2023-03-16T13:55:16;93429.00;;;3.73;65.81
61870;BME280;47810;42.264;23.826;2023-03-16T13:57:46;93447.19;;;3.56;65.82
61870;BME280;47810;42.264;23.826;2023-03-16T14:00:14;93450.56;;;3.58;66.10
61870;BME280;47810;42.264;23.826;2023-03-16T14:02:41;93439.44;;;3.73;65.73
61870;BME280;47810;42.264;23.826;2023-03-16T14:05:11;93449.84;;;3.35;66.79
61870;BME280;47810;42.264;23.826;2023-03-16T14:07:37;93449.56;;;3.41;66.53
61870;BME280;47810;42.264;23.826;2023-03-16T14:10:04;93446.44;;;3.33;66.60
61870;BME280;47810;42.264;23.826;2023-03-16T14:12:30;93455.84;;;3.37;67.09